sensor_id;sensor_type;location;lat;lon;timestamp;P1;durP1;ratioP1;P2;durP2;ratioP2
22268;SDS011;11303;50.772;19.670;2022-08-11T00:02:00;12.82;;;6.70;;
22268;SDS011;11303;50.772;19.670;2022-08-11T00:04:03;7.57;;;5.60;;
22268;SDS011;11303;50.772;19.670;2022-08-11T00:06:05;8.20;;;4.82;;
22268;SDS011;11303;50.772;19.670;2022-08-11T00:08:07;8.30;;;4.93;;
22268;SDS011;11303;50.772;19.670;2022-08-11T00:10:15;9.70;;;5.05;;
22268;SDS011;11303;50.772;19.670;2022-08-11T00:12:17;11.68;;;5.32;;
22268;SDS011;11303;50.772;19.670;2022-08-11T00:14:21;6.93;;;5.20;;
22268;SDS011;11303;50.772;19.670;2022-08-11T00:16:24;9.50;;;5.03;;
22268;SDS011;11303;50.772;19.670;2022-08-11T00:18:26;12.73;;;5.13;;
22268;SDS011;11303;50.772;19.670;2022-08-11T00:20:29;8.43;;;4.90;;
22268;SDS011;11303;50.772;19.670;2022-08-11T00:22:32;14.13;;;5.93;;
22268;SDS011;11303;50.772;19.670;2022-08-11T00:24:37;10.50;;;5.45;;
22268;SDS011;11303;50.772;19.670;2022-08-11T00:26:56;9.17;;;5.87;;
22268;SDS011;11303;50.772;19.670;2022-08-11T00:29:06;12.77;;;5.68;;
22268;SDS011;11303;50.772;19.670;2022-08-11T00:31:19;8.23;;;5.40;;
22268;SDS011;11303;50.772;19.670;2022-08-11T00:33:22;6.65;;;5.47;;
22268;SDS011;11303;50.772;19.670;2022-08-11T00:35:45;11.85;;;5.90;;
22268;SDS011;11303;50.772;19.670;2022-08-11T00:37:57;7.40;;;5.53;;
22268;SDS011;11303;50.772;19.670;2022-08-11T00:39:59;8.20;;;6.00;;
22268;SDS011;11303;50.772;19.670;2022-08-11T00:42:14;11.23;;;5.85;;
22268;SDS011;11303;50.772;19.670;2022-08-11T00:44:37;12.43;;;5.88;;
22268;SDS011;11303;50.772;19.670;2022-08-11T00:49:48;10.43;;;5.82;;
22268;SDS011;11303;50.772;19.670;2022-08-11T00:52:16;8.25;;;5.45;;
22268;SDS011;11303;50.772;19.670;2022-08-11T00:54:58;8.27;;;5.78;;
22268;SDS011;11303;50.772;19.670;2022-08-11T00:59:43;14.52;;;6.57;;
22268;SDS011;11303;50.772;19.670;2022-08-11T01:07:09;10.20;;;6.60;;
22268;SDS011;11303;50.772;19.670;2022-08-11T01:11:32;11.90;;;7.50;;
22268;SDS011;11303;50.772;19.670;2022-08-11T01:20:14;13.77;;;6.20;;
22268;SDS011;11303;50.772;19.670;2022-08-11T01:36:39;14.13;;;8.18;;
22268;SDS011;11303;50.772;19.670;2022-08-11T01:46:20;11.73;;;7.35;;
22268;SDS011;11303;50.772;19.670;2022-08-11T01:51:45;13.38;;;8.32;;
22268;SDS011;11303;50.772;19.670;2022-08-11T02:04:24;16.95;;;10.77;;
22268;SDS011;11303;50.772;19.670;2022-08-11T02:06:41;20.73;;;11.75;;
22268;SDS011;11303;50.772;19.670;2022-08-11T02:09:07;21.08;;;10.50;;
22268;SDS011;11303;50.772;19.670;2022-08-11T02:13:45;12.02;;;8.02;;
22268;SDS011;11303;50.772;19.670;2022-08-11T02:15:53;12.15;;;7.13;;
22268;SDS011;11303;50.772;19.670;2022-08-11T02:18:09;9.93;;;6.70;;
22268;SDS011;11303;50.772;19.670;2022-08-11T02:20:56;10.02;;;6.82;;
22268;SDS011;11303;50.772;19.670;2022-08-11T02:23:23;11.15;;;6.78;;
22268;SDS011;11303;50.772;19.670;2022-08-11T02:30:31;16.60;;;9.98;;
22268;SDS011;11303;50.772;19.670;2022-08-11T02:32:57;21.33;;;10.57;;
22268;SDS011;11303;50.772;19.670;2022-08-11T02:35:31;17.58;;;10.82;;
22268;SDS011;11303;50.772;19.670;2022-08-11T02:38:28;13.73;;;7.55;;
22268;SDS011;11303;50.772;19.670;2022-08-11T02:40:28;12.95;;;8.25;;
22268;SDS011;11303;50.772;19.670;2022-08-11T02:49:53;11.95;;;7.80;;
22268;SDS011;11303;50.772;19.670;2022-08-11T02:52:19;13.10;;;8.30;;
22268;SDS011;11303;50.772;19.670;2022-08-11T02:56:53;16.27;;;8.23;;
22268;SDS011;11303;50.772;19.670;2022-08-11T03:01:31;12.43;;;9.40;;
22268;SDS011;11303;50.772;19.670;2022-08-11T03:13:28;21.27;;;9.32;;
22268;SDS011;11303;50.772;19.670;2022-08-11T03:16:07;13.48;;;8.90;;
22268;SDS011;11303;50.772;19.670;2022-08-11T03:23:38;15.80;;;9.57;;
22268;SDS011;11303;50.772;19.670;2022-08-11T03:25:48;13.32;;;9.30;;
22268;SDS011;11303;50.772;19.670;2022-08-11T03:28:20;10.98;;;6.78;;
22268;SDS011;11303;50.772;19.670;2022-08-11T03:35:28;17.38;;;11.20;;
22268;SDS011;11303;50.772;19.670;2022-08-11T03:37:36;17.85;;;10.40;;
22268;SDS011;11303;50.772;19.670;2022-08-11T03:42:17;14.25;;;9.32;;
22268;SDS011;11303;50.772;19.670;2022-08-11T03:52:20;20.60;;;7.45;;
22268;SDS011;11303;50.772;19.670;2022-08-11T03:54:38;14.15;;;7.03;;
22268;SDS011;11303;50.772;19.670;2022-08-11T03:57:12;8.40;;;5.80;;
22268;SDS011;11303;50.772;19.670;2022-08-11T04:07:22;11.95;;;6.30;;
22268;SDS011;11303;50.772;19.670;2022-08-11T04:12:38;7.40;;;5.53;;
22268;SDS011;11303;50.772;19.670;2022-08-11T04:15:03;9.63;;;5.50;;
22268;SDS011;11303;50.772;19.670;2022-08-11T04:27:19;11.90;;;5.50;;
22268;SDS011;11303;50.772;19.670;2022-08-11T04:37:01;8.25;;;6.05;;
22268;SDS011;11303;50.772;19.670;2022-08-11T04:45:04;10.23;;;5.95;;
22268;SDS011;11303;50.772;19.670;2022-08-11T04:47:21;9.50;;;5.63;;
22268;SDS011;11303;50.772;19.670;2022-08-11T05:06:54;8.55;;;5.35;;
22268;SDS011;11303;50.772;19.670;2022-08-11T05:12:01;13.40;;;6.63;;
22268;SDS011;11303;50.772;19.670;2022-08-11T05:16:32;12.25;;;7.05;;
22268;SDS011;11303;50.772;19.670;2022-08-11T05:18:54;12.50;;;6.78;;
22268;SDS011;11303;50.772;19.670;2022-08-11T05:21:17;12.15;;;6.55;;
22268;SDS011;11303;50.772;19.670;2022-08-11T05:23:46;10.73;;;5.82;;
22268;SDS011;11303;50.772;19.670;2022-08-11T05:26:10;11.20;;;5.78;;
22268;SDS011;11303;50.772;19.670;2022-08-11T05:28:50;9.32;;;6.10;;
22268;SDS011;11303;50.772;19.670;2022-08-11T05:31:22;9.57;;;6.75;;
22268;SDS011;11303;50.772;19.670;2022-08-11T05:33:45;19.92;;;8.50;;
22268;SDS011;11303;50.772;19.670;2022-08-11T05:38:26;11.75;;;7.95;;
22268;SDS011;11303;50.772;19.670;2022-08-11T05:40:49;12.88;;;8.18;;
22268;SDS011;11303;50.772;19.670;2022-08-11T05:43:13;10.82;;;5.95;;
22268;SDS011;11303;50.772;19.670;2022-08-11T05:45:34;12.25;;;5.28;;
22268;SDS011;11303;50.772;19.670;2022-08-11T05:48:05;7.70;;;4.63;;
22268;SDS011;11303;50.772;19.670;2022-08-11T05:50:25;7.03;;;4.65;;
22268;SDS011;11303;50.772;19.670;2022-08-11T05:52:46;12.18;;;5.45;;
22268;SDS011;11303;50.772;19.670;2022-08-11T05:55:12;7.78;;;5.03;;
22268;SDS011;11303;50.772;19.670;2022-08-11T05:57:33;8.60;;;4.90;;
22268;SDS011;11303;50.772;19.670;2022-08-11T05:59:57;8.98;;;5.18;;
22268;SDS011;11303;50.772;19.670;2022-08-11T06:02:01;7.18;;;4.85;;
22268;SDS011;11303;50.772;19.670;2022-08-11T06:04:04;18.33;;;10.60;;
22268;SDS011;11303;50.772;19.670;2022-08-11T06:06:16;10.20;;;6.00;;
22268;SDS011;11303;50.772;19.670;2022-08-11T06:08:18;13.35;;;7.15;;
22268;SDS011;11303;50.772;19.670;2022-08-11T06:10:35;17.25;;;9.05;;
22268;SDS011;11303;50.772;19.670;2022-08-11T06:12:38;12.32;;;6.47;;
22268;SDS011;11303;50.772;19.670;2022-08-11T06:14:42;9.20;;;5.82;;
22268;SDS011;11303;50.772;19.670;2022-08-11T06:16:46;10.88;;;5.40;;
22268;SDS011;11303;50.772;19.670;2022-08-11T06:18:49;9.88;;;4.82;;
22268;SDS011;11303;50.772;19.670;2022-08-11T06:20:51;8.75;;;4.78;;
22268;SDS011;11303;50.772;19.670;2022-08-11T06:22:56;9.02;;;4.53;;
22268;SDS011;11303;50.772;19.670;2022-08-11T06:25:00;6.05;;;4.68;;
22268;SDS011;11303;50.772;19.670;2022-08-11T06:27:03;7.28;;;4.68;;
22268;SDS011;11303;50.772;19.670;2022-08-11T06:29:13;8.45;;;4.07;;
22268;SDS011;11303;50.772;19.670;2022-08-11T06:31:19;13.88;;;4.85;;
22268;SDS011;11303;50.772;19.670;2022-08-11T06:33:32;8.45;;;4.78;;
22268;SDS011;11303;50.772;19.670;2022-08-11T06:35:47;7.35;;;5.00;;
22268;SDS011;11303;50.772;19.670;2022-08-11T06:38:06;6.95;;;4.65;;
22268;SDS011;11303;50.772;19.670;2022-08-11T06:42:45;14.07;;;9.23;;
22268;SDS011;11303;50.772;19.670;2022-08-11T06:45:06;10.52;;;6.00;;
22268;SDS011;11303;50.772;19.670;2022-08-11T06:47:31;10.23;;;5.07;;
22268;SDS011;11303;50.772;19.670;2022-08-11T06:49:35;10.75;;;4.72;;
22268;SDS011;11303;50.772;19.670;2022-08-11T06:52:04;11.23;;;6.18;;
22268;SDS011;11303;50.772;19.670;2022-08-11T06:54:31;6.80;;;4.60;;
22268;SDS011;11303;50.772;19.670;2022-08-11T06:56:36;8.13;;;4.55;;
22268;SDS011;11303;50.772;19.670;2022-08-11T06:59:16;11.48;;;3.70;;
22268;SDS011;11303;50.772;19.670;2022-08-11T07:01:40;10.20;;;4.68;;
22268;SDS011;11303;50.772;19.670;2022-08-11T07:03:55;11.77;;;4.60;;
22268;SDS011;11303;50.772;19.670;2022-08-11T07:06:08;10.52;;;4.88;;
22268;SDS011;11303;50.772;19.670;2022-08-11T07:13:33;8.65;;;4.10;;
22268;SDS011;11303;50.772;19.670;2022-08-11T07:15:54;9.90;;;4.10;;
22268;SDS011;11303;50.772;19.670;2022-08-11T07:18:21;5.63;;;3.53;;
22268;SDS011;11303;50.772;19.670;2022-08-11T07:20:44;7.15;;;3.50;;
22268;SDS011;11303;50.772;19.670;2022-08-11T07:23:24;8.02;;;3.58;;
22268;SDS011;11303;50.772;19.670;2022-08-11T07:25:53;7.45;;;3.30;;
22268;SDS011;11303;50.772;19.670;2022-08-11T07:28:16;5.97;;;2.58;;
22268;SDS011;11303;50.772;19.670;2022-08-11T07:30:38;5.25;;;2.95;;
22268;SDS011;11303;50.772;19.670;2022-08-11T07:32:46;6.13;;;3.00;;
22268;SDS011;11303;50.772;19.670;2022-08-11T07:34:55;4.40;;;2.40;;
22268;SDS011;11303;50.772;19.670;2022-08-11T07:37:08;5.60;;;2.90;;
22268;SDS011;11303;50.772;19.670;2022-08-11T07:39:14;7.80;;;3.47;;
22268;SDS011;11303;50.772;19.670;2022-08-11T07:41:28;10.43;;;2.53;;
22268;SDS011;11303;50.772;19.670;2022-08-11T07:43:35;3.97;;;2.63;;
22268;SDS011;11303;50.772;19.670;2022-08-11T07:45:39;6.03;;;2.25;;
22268;SDS011;11303;50.772;19.670;2022-08-11T07:48:01;8.75;;;2.90;;
22268;SDS011;11303;50.772;19.670;2022-08-11T07:50:22;6.53;;;2.60;;
22268;SDS011;11303;50.772;19.670;2022-08-11T07:52:43;5.32;;;2.13;;
22268;SDS011;11303;50.772;19.670;2022-08-11T07:56:55;3.25;;;2.08;;
22268;SDS011;11303;50.772;19.670;2022-08-11T07:59:09;3.92;;;1.58;;
22268;SDS011;11303;50.772;19.670;2022-08-11T08:01:51;2.42;;;1.50;;
22268;SDS011;11303;50.772;19.670;2022-08-11T08:04:12;6.05;;;1.95;;
22268;SDS011;11303;50.772;19.670;2022-08-11T08:06:34;6.78;;;1.90;;
22268;SDS011;11303;50.772;19.670;2022-08-11T08:08:55;5.55;;;2.38;;
22268;SDS011;11303;50.772;19.670;2022-08-11T08:11:18;3.17;;;1.20;;
22268;SDS011;11303;50.772;19.670;2022-08-11T08:13:40;2.88;;;1.33;;
22268;SDS011;11303;50.772;19.670;2022-08-11T08:16:01;2.65;;;1.40;;
22268;SDS011;11303;50.772;19.670;2022-08-11T08:18:21;4.22;;;1.33;;
22268;SDS011;11303;50.772;19.670;2022-08-11T08:20:29;3.03;;;1.30;;
22268;SDS011;11303;50.772;19.670;2022-08-11T08:22:33;3.85;;;1.48;;
22268;SDS011;11303;50.772;19.670;2022-08-11T08:24:39;4.63;;;1.70;;
22268;SDS011;11303;50.772;19.670;2022-08-11T08:26:42;2.72;;;1.50;;
22268;SDS011;11303;50.772;19.670;2022-08-11T08:29:00;1.80;;;1.20;;
22268;SDS011;11303;50.772;19.670;2022-08-11T08:31:22;2.38;;;1.13;;
22268;SDS011;11303;50.772;19.670;2022-08-11T08:33:26;2.70;;;1.10;;
22268;SDS011;11303;50.772;19.670;2022-08-11T08:35:29;1.10;;;1.00;;
22268;SDS011;11303;50.772;19.670;2022-08-11T08:37:33;3.55;;;1.63;;
22268;SDS011;11303;50.772;19.670;2022-08-11T08:39:47;4.38;;;1.27;;
22268;SDS011;11303;50.772;19.670;2022-08-11T08:41:51;2.95;;;1.35;;
22268;SDS011;11303;50.772;19.670;2022-08-11T08:43:56;5.15;;;2.60;;
22268;SDS011;11303;50.772;19.670;2022-08-11T08:46:21;2.70;;;1.38;;
22268;SDS011;11303;50.772;19.670;2022-08-11T08:48:26;1.80;;;1.00;;
22268;SDS011;11303;50.772;19.670;2022-08-11T08:50:37;2.75;;;1.02;;
22268;SDS011;11303;50.772;19.670;2022-08-11T08:53:03;1.80;;;1.05;;
22268;SDS011;11303;50.772;19.670;2022-08-11T08:55:06;3.35;;;1.20;;
22268;SDS011;11303;50.772;19.670;2022-08-11T08:57:10;4.68;;;1.45;;
22268;SDS011;11303;50.772;19.670;2022-08-11T08:59:13;1.73;;;1.10;;
22268;SDS011;11303;50.772;19.670;2022-08-11T09:01:15;3.05;;;1.00;;
22268;SDS011;11303;50.772;19.670;2022-08-11T09:03:21;2.75;;;1.10;;
22268;SDS011;11303;50.772;19.670;2022-08-11T09:05:43;1.95;;;1.25;;
22268;SDS011;11303;50.772;19.670;2022-08-11T09:07:44;3.60;;;1.02;;
22268;SDS011;11303;50.772;19.670;2022-08-11T09:09:48;3.60;;;1.10;;
22268;SDS011;11303;50.772;19.670;2022-08-11T09:11:51;2.03;;;1.00;;
22268;SDS011;11303;50.772;19.670;2022-08-11T09:13:53;1.67;;;1.15;;
22268;SDS011;11303;50.772;19.670;2022-08-11T09:16:06;6.18;;;1.10;;
22268;SDS011;11303;50.772;19.670;2022-08-11T09:18:10;0.88;;;0.82;;
22268;SDS011;11303;50.772;19.670;2022-08-11T09:22:18;1.75;;;1.05;;
22268;SDS011;11303;50.772;19.670;2022-08-11T09:24:39;3.22;;;1.10;;
22268;SDS011;11303;50.772;19.670;2022-08-11T09:27:02;4.20;;;1.13;;
22268;SDS011;11303;50.772;19.670;2022-08-11T09:29:07;2.13;;;1.10;;
22268;SDS011;11303;50.772;19.670;2022-08-11T09:31:10;5.40;;;1.80;;
22268;SDS011;11303;50.772;19.670;2022-08-11T09:33:15;6.22;;;1.45;;
22268;SDS011;11303;50.772;19.670;2022-08-11T09:35:17;1.13;;;1.02;;
22268;SDS011;11303;50.772;19.670;2022-08-11T09:37:19;4.90;;;2.92;;
22268;SDS011;11303;50.772;19.670;2022-08-11T09:39:56;2.35;;;1.50;;
22268;SDS011;11303;50.772;19.670;2022-08-11T09:42:19;1.10;;;1.00;;
22268;SDS011;11303;50.772;19.670;2022-08-11T09:44:24;1.40;;;1.00;;
22268;SDS011;11303;50.772;19.670;2022-08-11T09:46:45;3.33;;;1.40;;
22268;SDS011;11303;50.772;19.670;2022-08-11T09:48:47;3.67;;;1.70;;
22268;SDS011;11303;50.772;19.670;2022-08-11T09:50:53;3.70;;;1.88;;
22268;SDS011;11303;50.772;19.670;2022-08-11T09:52:56;12.38;;;5.63;;
22268;SDS011;11303;50.772;19.670;2022-08-11T09:55:17;8.25;;;3.65;;
22268;SDS011;11303;50.772;19.670;2022-08-11T09:57:20;5.35;;;2.60;;
22268;SDS011;11303;50.772;19.670;2022-08-11T09:59:41;5.35;;;2.40;;
22268;SDS011;11303;50.772;19.670;2022-08-11T10:01:44;2.75;;;1.15;;
22268;SDS011;11303;50.772;19.670;2022-08-11T10:03:49;0.88;;;0.85;;
22268;SDS011;11303;50.772;19.670;2022-08-11T10:05:54;4.68;;;0.88;;
22268;SDS011;11303;50.772;19.670;2022-08-11T10:08:16;2.10;;;1.10;;
22268;SDS011;11303;50.772;19.670;2022-08-11T10:10:20;2.25;;;1.15;;
22268;SDS011;11303;50.772;19.670;2022-08-11T10:14:26;3.70;;;1.10;;
22268;SDS011;11303;50.772;19.670;2022-08-11T10:16:49;2.13;;;1.40;;
22268;SDS011;11303;50.772;19.670;2022-08-11T10:18:51;1.27;;;0.98;;
22268;SDS011;11303;50.772;19.670;2022-08-11T10:20:57;3.80;;;2.20;;
22268;SDS011;11303;50.772;19.670;2022-08-11T10:23:14;1.05;;;0.88;;
22268;SDS011;11303;50.772;19.670;2022-08-11T10:25:54;8.48;;;3.20;;
22268;SDS011;11303;50.772;19.670;2022-08-11T10:28:16;5.07;;;0.80;;
22268;SDS011;11303;50.772;19.670;2022-08-11T10:30:38;3.80;;;1.00;;
22268;SDS011;11303;50.772;19.670;2022-08-11T10:32:59;1.60;;;1.23;;
22268;SDS011;11303;50.772;19.670;2022-08-11T10:35:38;1.80;;;1.00;;
22268;SDS011;11303;50.772;19.670;2022-08-11T10:37:42;1.10;;;1.05;;
22268;SDS011;11303;50.772;19.670;2022-08-11T10:40:05;2.83;;;1.08;;
22268;SDS011;11303;50.772;19.670;2022-08-11T10:42:08;4.28;;;1.80;;
22268;SDS011;11303;50.772;19.670;2022-08-11T10:44:52;2.00;;;0.80;;
22268;SDS011;11303;50.772;19.670;2022-08-11T10:46:56;8.48;;;1.80;;
22268;SDS011;11303;50.772;19.670;2022-08-11T10:49:16;2.72;;;1.50;;
22268;SDS011;11303;50.772;19.670;2022-08-11T10:51:19;1.85;;;0.93;;
22268;SDS011;11303;50.772;19.670;2022-08-11T10:53:47;5.10;;;1.35;;
22268;SDS011;11303;50.772;19.670;2022-08-11T10:56:12;2.35;;;1.95;;
22268;SDS011;11303;50.772;19.670;2022-08-11T10:58:35;5.18;;;2.92;;
22268;SDS011;11303;50.772;19.670;2022-08-11T11:00:51;12.68;;;6.03;;
22268;SDS011;11303;50.772;19.670;2022-08-11T11:02:57;10.23;;;4.35;;
22268;SDS011;11303;50.772;19.670;2022-08-11T11:05:25;19.50;;;8.68;;
22268;SDS011;11303;50.772;19.670;2022-08-11T11:07:37;2.42;;;1.02;;
22268;SDS011;11303;50.772;19.670;2022-08-11T11:10:01;3.65;;;1.20;;
22268;SDS011;11303;50.772;19.670;2022-08-11T11:14:43;1.08;;;0.70;;
22268;SDS011;11303;50.772;19.670;2022-08-11T11:17:08;1.17;;;0.90;;
22268;SDS011;11303;50.772;19.670;2022-08-11T11:19:14;1.10;;;0.80;;
22268;SDS011;11303;50.772;19.670;2022-08-11T11:21:19;0.55;;;0.52;;
22268;SDS011;11303;50.772;19.670;2022-08-11T11:23:44;2.17;;;0.75;;
22268;SDS011;11303;50.772;19.670;2022-08-11T11:28:42;5.45;;;2.67;;
22268;SDS011;11303;50.772;19.670;2022-08-11T11:31:09;1.30;;;0.85;;
22268;SDS011;11303;50.772;19.670;2022-08-11T11:33:22;1.00;;;0.82;;
22268;SDS011;11303;50.772;19.670;2022-08-11T11:35:35;1.83;;;1.05;;
22268;SDS011;11303;50.772;19.670;2022-08-11T11:37:57;0.98;;;0.88;;
22268;SDS011;11303;50.772;19.670;2022-08-11T11:40:10;1.58;;;1.10;;
22268;SDS011;11303;50.772;19.670;2022-08-11T11:42:13;3.53;;;1.00;;
22268;SDS011;11303;50.772;19.670;2022-08-11T11:44:15;2.33;;;1.42;;
22268;SDS011;11303;50.772;19.670;2022-08-11T11:46:17;1.40;;;1.10;;
22268;SDS011;11303;50.772;19.670;2022-08-11T11:48:18;0.73;;;0.70;;
22268;SDS011;11303;50.772;19.670;2022-08-11T11:50:27;3.97;;;1.00;;
22268;SDS011;11303;50.772;19.670;2022-08-11T11:52:34;1.27;;;0.90;;
22268;SDS011;11303;50.772;19.670;2022-08-11T11:54:38;2.85;;;0.90;;
22268;SDS011;11303;50.772;19.670;2022-08-11T11:56:44;1.23;;;0.90;;
22268;SDS011;11303;50.772;19.670;2022-08-11T11:58:46;0.80;;;0.80;;
22268;SDS011;11303;50.772;19.670;2022-08-11T12:01:11;0.98;;;0.90;;
22268;SDS011;11303;50.772;19.670;2022-08-11T12:03:16;3.95;;;1.70;;
22268;SDS011;11303;50.772;19.670;2022-08-11T12:05:18;1.63;;;1.45;;
22268;SDS011;11303;50.772;19.670;2022-08-11T12:07:21;2.03;;;1.40;;
22268;SDS011;11303;50.772;19.670;2022-08-11T12:09:45;2.05;;;1.50;;
22268;SDS011;11303;50.772;19.670;2022-08-11T12:11:47;1.90;;;1.60;;
22268;SDS011;11303;50.772;19.670;2022-08-11T12:14:09;1.38;;;1.00;;
22268;SDS011;11303;50.772;19.670;2022-08-11T12:16:15;2.60;;;2.08;;
22268;SDS011;11303;50.772;19.670;2022-08-11T12:18:36;5.65;;;3.28;;
22268;SDS011;11303;50.772;19.670;2022-08-11T12:20:38;8.70;;;1.70;;
22268;SDS011;11303;50.772;19.670;2022-08-11T12:22:40;3.95;;;2.28;;
22268;SDS011;11303;50.772;19.670;2022-08-11T12:25:01;14.43;;;1.83;;
22268;SDS011;11303;50.772;19.670;2022-08-11T12:27:22;3.17;;;0.88;;
22268;SDS011;11303;50.772;19.670;2022-08-11T12:29:26;1.00;;;0.90;;
22268;SDS011;11303;50.772;19.670;2022-08-11T12:31:28;1.05;;;0.57;;
22268;SDS011;11303;50.772;19.670;2022-08-11T12:33:30;6.10;;;0.90;;
22268;SDS011;11303;50.772;19.670;2022-08-11T12:35:35;5.10;;;1.73;;
22268;SDS011;11303;50.772;19.670;2022-08-11T12:37:44;10.30;;;1.77;;
22268;SDS011;11303;50.772;19.670;2022-08-11T12:39:50;1.90;;;1.13;;
22268;SDS011;11303;50.772;19.670;2022-08-11T12:42:33;4.22;;;1.60;;
22268;SDS011;11303;50.772;19.670;2022-08-11T12:44:57;2.75;;;0.90;;
22268;SDS011;11303;50.772;19.670;2022-08-11T12:47:22;1.48;;;0.98;;
22268;SDS011;11303;50.772;19.670;2022-08-11T12:49:24;2.67;;;0.98;;
22268;SDS011;11303;50.772;19.670;2022-08-11T12:51:48;8.05;;;2.42;;
22268;SDS011;11303;50.772;19.670;2022-08-11T12:54:26;5.60;;;1.42;;
22268;SDS011;11303;50.772;19.670;2022-08-11T12:56:32;6.47;;;1.30;;
22268;SDS011;11303;50.772;19.670;2022-08-11T12:58:57;2.33;;;1.30;;
22268;SDS011;11303;50.772;19.670;2022-08-11T13:01:18;2.47;;;1.42;;
22268;SDS011;11303;50.772;19.670;2022-08-11T13:03:39;5.20;;;1.50;;
22268;SDS011;11303;50.772;19.670;2022-08-11T13:06:00;3.22;;;1.42;;
22268;SDS011;11303;50.772;19.670;2022-08-11T13:08:03;6.13;;;1.40;;
22268;SDS011;11303;50.772;19.670;2022-08-11T13:10:07;0.80;;;0.80;;
22268;SDS011;11303;50.772;19.670;2022-08-11T13:12:17;1.20;;;1.05;;
22268;SDS011;11303;50.772;19.670;2022-08-11T13:14:38;3.35;;;1.52;;
22268;SDS011;11303;50.772;19.670;2022-08-11T13:16:40;2.67;;;1.60;;
22268;SDS011;11303;50.772;19.670;2022-08-11T13:19:00;3.97;;;2.20;;
22268;SDS011;11303;50.772;19.670;2022-08-11T13:21:02;5.07;;;1.98;;
22268;SDS011;11303;50.772;19.670;2022-08-11T13:23:04;3.25;;;2.00;;
22268;SDS011;11303;50.772;19.670;2022-08-11T13:25:06;4.35;;;2.30;;
22268;SDS011;11303;50.772;19.670;2022-08-11T13:27:15;13.10;;;11.65;;
22268;SDS011;11303;50.772;19.670;2022-08-11T13:29:20;10.32;;;6.13;;
22268;SDS011;11303;50.772;19.670;2022-08-11T13:31:23;10.00;;;8.35;;
22268;SDS011;11303;50.772;19.670;2022-08-11T13:33:25;5.30;;;3.45;;
22268;SDS011;11303;50.772;19.670;2022-08-11T13:35:32;4.32;;;2.10;;
22268;SDS011;11303;50.772;19.670;2022-08-11T13:37:34;7.55;;;2.17;;
22268;SDS011;11303;50.772;19.670;2022-08-11T13:39:56;4.40;;;1.88;;
22268;SDS011;11303;50.772;19.670;2022-08-11T13:41:59;4.07;;;1.58;;
22268;SDS011;11303;50.772;19.670;2022-08-11T13:44:02;3.88;;;2.97;;
22268;SDS011;11303;50.772;19.670;2022-08-11T13:46:16;3.80;;;3.50;;
22268;SDS011;11303;50.772;19.670;2022-08-11T13:48:23;5.70;;;1.98;;
22268;SDS011;11303;50.772;19.670;2022-08-11T13:50:25;5.30;;;2.55;;
22268;SDS011;11303;50.772;19.670;2022-08-11T13:52:47;2.97;;;2.60;;
22268;SDS011;11303;50.772;19.670;2022-08-11T13:54:53;1.55;;;1.42;;
22268;SDS011;11303;50.772;19.670;2022-08-11T13:56:56;3.67;;;1.38;;
22268;SDS011;11303;50.772;19.670;2022-08-11T13:59:02;2.60;;;1.30;;
22268;SDS011;11303;50.772;19.670;2022-08-11T14:01:04;1.13;;;1.02;;
22268;SDS011;11303;50.772;19.670;2022-08-11T14:03:27;1.33;;;1.08;;
22268;SDS011;11303;50.772;19.670;2022-08-11T14:05:50;1.40;;;0.85;;
22268;SDS011;11303;50.772;19.670;2022-08-11T14:08:03;2.47;;;0.90;;
22268;SDS011;11303;50.772;19.670;2022-08-11T14:10:29;3.08;;;1.67;;
22268;SDS011;11303;50.772;19.670;2022-08-11T14:12:34;2.67;;;1.20;;
22268;SDS011;11303;50.772;19.670;2022-08-11T14:14:58;2.45;;;1.30;;
22268;SDS011;11303;50.772;19.670;2022-08-11T14:17:08;2.63;;;1.20;;
22268;SDS011;11303;50.772;19.670;2022-08-11T14:19:11;4.75;;;1.40;;
22268;SDS011;11303;50.772;19.670;2022-08-11T14:21:15;3.53;;;1.27;;
22268;SDS011;11303;50.772;19.670;2022-08-11T14:23:45;1.15;;;1.05;;
22268;SDS011;11303;50.772;19.670;2022-08-11T14:25:48;2.53;;;1.40;;
22268;SDS011;11303;50.772;19.670;2022-08-11T14:28:08;2.58;;;1.48;;
22268;SDS011;11303;50.772;19.670;2022-08-11T14:30:30;2.90;;;1.10;;
22268;SDS011;11303;50.772;19.670;2022-08-11T14:32:50;2.17;;;1.20;;
22268;SDS011;11303;50.772;19.670;2022-08-11T14:34:56;1.90;;;1.20;;
22268;SDS011;11303;50.772;19.670;2022-08-11T14:36:59;2.65;;;1.27;;
22268;SDS011;11303;50.772;19.670;2022-08-11T14:39:07;3.13;;;1.30;;
22268;SDS011;11303;50.772;19.670;2022-08-11T14:41:13;3.22;;;1.40;;
22268;SDS011;11303;50.772;19.670;2022-08-11T14:43:34;4.05;;;1.33;;
22268;SDS011;11303;50.772;19.670;2022-08-11T14:46:14;1.90;;;1.17;;
22268;SDS011;11303;50.772;19.670;2022-08-11T14:48:34;2.63;;;1.60;;
22268;SDS011;11303;50.772;19.670;2022-08-11T14:50:38;1.50;;;1.33;;
22268;SDS011;11303;50.772;19.670;2022-08-11T14:52:49;2.42;;;1.20;;
22268;SDS011;11303;50.772;19.670;2022-08-11T14:54:53;1.40;;;0.98;;
22268;SDS011;11303;50.772;19.670;2022-08-11T14:57:23;2.30;;;1.33;;
22268;SDS011;11303;50.772;19.670;2022-08-11T14:59:48;2.83;;;1.20;;
22268;SDS011;11303;50.772;19.670;2022-08-11T15:01:50;1.88;;;1.55;;
22268;SDS011;11303;50.772;19.670;2022-08-11T15:04:11;2.90;;;1.63;;
22268;SDS011;11303;50.772;19.670;2022-08-11T15:06:32;1.55;;;1.40;;
22268;SDS011;11303;50.772;19.670;2022-08-11T15:08:35;1.38;;;1.15;;
22268;SDS011;11303;50.772;19.670;2022-08-11T15:10:57;1.83;;;1.40;;
22268;SDS011;11303;50.772;19.670;2022-08-11T15:12:59;1.67;;;1.40;;
22268;SDS011;11303;50.772;19.670;2022-08-11T15:15:02;1.73;;;1.33;;
22268;SDS011;11303;50.772;19.670;2022-08-11T15:17:24;3.92;;;1.25;;
22268;SDS011;11303;50.772;19.670;2022-08-11T15:19:43;5.10;;;1.60;;
22268;SDS011;11303;50.772;19.670;2022-08-11T15:22:04;3.30;;;1.80;;
22268;SDS011;11303;50.772;19.670;2022-08-11T15:24:28;3.45;;;1.85;;
22268;SDS011;11303;50.772;19.670;2022-08-11T15:26:32;1.92;;;1.60;;
22268;SDS011;11303;50.772;19.670;2022-08-11T15:28:55;2.83;;;1.45;;
22268;SDS011;11303;50.772;19.670;2022-08-11T15:31:15;3.33;;;1.50;;
22268;SDS011;11303;50.772;19.670;2022-08-11T15:33:35;8.15;;;1.80;;
22268;SDS011;11303;50.772;19.670;2022-08-11T15:35:58;1.92;;;1.20;;
22268;SDS011;11303;50.772;19.670;2022-08-11T15:38:22;2.05;;;1.35;;
22268;SDS011;11303;50.772;19.670;2022-08-11T15:40:35;1.75;;;1.25;;
22268;SDS011;11303;50.772;19.670;2022-08-11T15:45:36;3.45;;;1.25;;
22268;SDS011;11303;50.772;19.670;2022-08-11T15:47:51;1.55;;;1.25;;
22268;SDS011;11303;50.772;19.670;2022-08-11T15:50:06;2.80;;;1.48;;
22268;SDS011;11303;50.772;19.670;2022-08-11T15:52:15;4.43;;;1.60;;
22268;SDS011;11303;50.772;19.670;2022-08-11T15:54:19;3.55;;;1.50;;
22268;SDS011;11303;50.772;19.670;2022-08-11T15:56:25;2.45;;;1.60;;
22268;SDS011;11303;50.772;19.670;2022-08-11T15:58:29;3.60;;;1.77;;
22268;SDS011;11303;50.772;19.670;2022-08-11T16:01:11;2.92;;;1.50;;
22268;SDS011;11303;50.772;19.670;2022-08-11T16:03:46;2.88;;;1.40;;
22268;SDS011;11303;50.772;19.670;2022-08-11T16:06:13;2.50;;;1.50;;
22268;SDS011;11303;50.772;19.670;2022-08-11T16:08:16;2.75;;;1.30;;
22268;SDS011;11303;50.772;19.670;2022-08-11T16:10:33;1.70;;;1.45;;
22268;SDS011;11303;50.772;19.670;2022-08-11T16:12:42;9.07;;;1.45;;
22268;SDS011;11303;50.772;19.670;2022-08-11T16:15:08;1.60;;;1.40;;
22268;SDS011;11303;50.772;19.670;2022-08-11T16:17:30;2.33;;;1.27;;
22268;SDS011;11303;50.772;19.670;2022-08-11T16:19:34;1.85;;;1.35;;